createdAt,value
2018-04-29T00:00:14.294Z,19.6
2018-04-29T00:01:15.594Z,19.6
2018-04-29T00:02:16.890Z,19.6
2018-04-29T00:03:18.200Z,19.6
2018-04-29T00:04:19.538Z,19.6
2018-04-29T00:05:20.877Z,19.6
2018-04-29T00:06:22.219Z,19.6
2018-04-29T00:07:23.640Z,19.6
2018-04-29T00:08:24.946Z,19.5
2018-04-29T00:09:26.251Z,19.6
2018-04-29T00:10:27.606Z,19.5
2018-04-29T00:11:28.961Z,19.5
2018-04-29T00:12:30.311Z,19.5
2018-04-29T00:13:31.694Z,19.5
2018-04-29T00:14:33.004Z,19.5
2018-04-29T00:15:34.347Z,19.5
2018-04-29T00:16:35.677Z,19.5
2018-04-29T00:17:36.994Z,19.5
2018-04-29T00:18:38.317Z,19.5
2018-04-29T00:19:39.629Z,19.5
2018-04-29T00:20:40.996Z,19.5
2018-04-29T00:21:42.309Z,19.4
2018-04-29T00:22:43.690Z,19.5
2018-04-29T00:23:45.061Z,19.4
2018-04-29T00:24:46.424Z,19.5
2018-04-29T00:25:47.844Z,19.5
2018-04-29T00:26:52.194Z,19.4
2018-04-29T00:27:53.514Z,19.4
2018-04-29T00:28:54.868Z,19.4
2018-04-29T00:29:56.206Z,19.4
2018-04-29T00:30:57.575Z,19.4
2018-04-29T00:32:00.128Z,19.4
2018-04-29T00:33:01.503Z,19.4
2018-04-29T00:34:02.846Z,19.4
2018-04-29T00:35:04.239Z,19.4
2018-04-29T00:36:05.649Z,19.4
2018-04-29T00:37:07.010Z,19.4
2018-04-29T00:38:08.342Z,19.4
2018-04-29T00:39:09.679Z,19.4
2018-04-29T00:40:10.996Z,19.4
2018-04-29T00:41:12.366Z,19.4
2018-04-29T00:42:13.733Z,19.4
2018-04-29T00:43:15.038Z,19.3
2018-04-29T00:44:16.888Z,19.4
2018-04-29T00:45:18.272Z,19.3
2018-04-29T00:46:19.633Z,19.3
2018-04-29T00:47:20.978Z,19.3
2018-04-29T00:48:22.286Z,19.3
2018-04-29T00:49:23.695Z,19.3
2018-04-29T00:50:25.010Z,19.3
2018-04-29T00:51:26.374Z,19.3
2018-04-29T00:52:27.751Z,19.3
2018-04-29T00:53:29.066Z,19.3
2018-04-29T00:54:30.409Z,19.3
2018-04-29T00:55:31.951Z,19.3
2018-04-29T00:56:33.462Z,19.3
2018-04-29T00:57:34.830Z,19.3
2018-04-29T00:58:36.130Z,19.3
2018-04-29T00:59:37.499Z,19.3
2018-04-29T01:00:38.797Z,19.3
2018-04-29T01:01:40.148Z,19.3
2018-04-29T01:02:41.495Z,19.2
2018-04-29T01:03:42.877Z,19.2
2018-04-29T01:04:44.196Z,19.2
2018-04-29T01:05:50.860Z,19.2
2018-04-29T01:06:52.408Z,19.2
2018-04-29T01:07:53.795Z,19.2
2018-04-29T01:08:55.106Z,19.2
2018-04-29T01:09:56.417Z,19.2
2018-04-29T01:10:57.749Z,19.2
2018-04-29T01:11:59.086Z,19.2
2018-04-29T01:13:00.477Z,19.1
2018-04-29T01:14:01.866Z,19.1
2018-04-29T01:15:03.255Z,19.1
2018-04-29T01:16:07.375Z,19.1
2018-04-29T01:17:08.770Z,19.1
2018-04-29T01:18:10.099Z,19.1
2018-04-29T01:19:11.428Z,19.1
2018-04-29T01:20:12.729Z,19.1
2018-04-29T01:21:14.091Z,19.1
2018-04-29T01:22:15.470Z,19.1
2018-04-29T01:23:16.956Z,19.1
2018-04-29T01:24:18.520Z,19.1
2018-04-29T01:25:19.826Z,19.1
2018-04-29T01:26:21.119Z,19.1
2018-04-29T01:27:22.522Z,19.1
2018-04-29T01:28:23.893Z,19
2018-04-29T01:29:25.206Z,19.1
2018-04-29T01:30:26.532Z,19
2018-04-29T01:31:27.862Z,19.1
2018-04-29T01:32:29.245Z,19
2018-04-29T01:33:30.561Z,19
2018-04-29T01:34:31.862Z,19
2018-04-29T01:35:33.163Z,19
2018-04-29T01:36:34.541Z,19
2018-04-29T01:37:36.054Z,19
2018-04-29T01:38:37.352Z,19
2018-04-29T01:39:38.657Z,18.8
2018-04-29T01:40:39.991Z,18.9
2018-04-29T01:41:41.310Z,18.9
2018-04-29T01:42:42.703Z,18.9
2018-04-29T01:43:44.059Z,18.9
2018-04-29T01:44:45.402Z,18.9
2018-04-29T01:45:46.709Z,18.9
2018-04-29T01:46:49.969Z,18.9
2018-04-29T01:47:53.761Z,18.9
2018-04-29T01:48:55.101Z,18.8
2018-04-29T01:49:56.404Z,18.8
2018-04-29T01:50:57.723Z,18.8
2018-04-29T01:51:59.041Z,18.8
2018-04-29T01:53:00.378Z,18.8
2018-04-29T01:54:01.752Z,18.9
2018-04-29T01:55:03.068Z,18.8
2018-04-29T01:56:04.454Z,18.8
2018-04-29T01:57:05.770Z,18.8
2018-04-29T01:58:07.122Z,18.8
2018-04-29T01:59:08.446Z,18.8
2018-04-29T02:00:09.771Z,18.8
2018-04-29T02:01:11.112Z,18.8
2018-04-29T02:02:12.410Z,18.8
2018-04-29T02:03:13.765Z,18.8
2018-04-29T02:04:15.109Z,18.7
2018-04-29T02:05:16.450Z,18.7
2018-04-29T02:06:17.778Z,18.8
2018-04-29T02:07:20.400Z,18.7
2018-04-29T02:08:21.801Z,18.7
2018-04-29T02:09:23.125Z,18.6
2018-04-29T02:10:24.458Z,18.7
2018-04-29T02:11:25.862Z,18.7
2018-04-29T02:12:27.190Z,18.7
2018-04-29T02:13:28.539Z,18.7
2018-04-29T02:14:29.863Z,18.7
2018-04-29T02:15:31.231Z,18.7
2018-04-29T02:16:32.539Z,18.6
2018-04-29T02:17:33.855Z,18.6
2018-04-29T02:18:35.248Z,18.6
2018-04-29T02:19:36.557Z,18.6
2018-04-29T02:20:37.942Z,18.6
2018-04-29T02:21:39.269Z,18.6
2018-04-29T02:22:40.557Z,18.5
2018-04-29T02:23:42.060Z,18.5
2018-04-29T02:24:43.350Z,18.5
2018-04-29T02:25:44.731Z,18.5
2018-04-29T02:26:46.065Z,18.4
2018-04-29T02:27:47.614Z,18.5
2018-04-29T02:28:51.775Z,18.5
2018-04-29T02:29:53.109Z,18.5
2018-04-29T02:30:54.452Z,18.5
2018-04-29T02:31:55.779Z,18.5
2018-04-29T02:32:57.073Z,18.5
2018-04-29T02:33:58.422Z,18.5
2018-04-29T02:34:59.760Z,18.4
2018-04-29T02:36:01.110Z,18.4
2018-04-29T02:37:02.436Z,18.4
2018-04-29T02:38:03.780Z,18.2
2018-04-29T02:39:05.134Z,18.4
2018-04-29T02:40:06.463Z,18.4
2018-04-29T02:41:08.470Z,18.4
2018-04-29T02:42:09.787Z,18.3
2018-04-29T02:43:11.158Z,18.3
2018-04-29T02:44:12.488Z,18.3
2018-04-29T02:45:13.796Z,18.3
2018-04-29T02:46:15.097Z,18.3
2018-04-29T02:47:16.439Z,18.3
2018-04-29T02:48:17.755Z,18.3
2018-04-29T02:49:19.147Z,18.3
2018-04-29T02:50:20.455Z,18.3
2018-04-29T02:51:21.768Z,18.3
2018-04-29T02:52:23.049Z,18.3
2018-04-29T02:53:24.357Z,18.2
2018-04-29T02:54:25.747Z,18.2
2018-04-29T02:55:27.051Z,18.2
2018-04-29T02:56:28.345Z,18.2
2018-04-29T02:57:29.643Z,18.2
2018-04-29T02:58:30.941Z,18.2
2018-04-29T02:59:32.279Z,18.1
2018-04-29T03:00:33.584Z,18.1
2018-04-29T03:01:34.903Z,18.1
2018-04-29T03:02:36.251Z,18.1
2018-04-29T03:03:37.565Z,18.1
2018-04-29T03:04:38.938Z,18.1
2018-04-29T03:05:40.244Z,18.1
2018-04-29T03:06:41.539Z,18.1
2018-04-29T03:07:42.823Z,18
2018-04-29T03:08:44.125Z,18
2018-04-29T03:09:47.423Z,18
2018-04-29T03:10:50.998Z,17.9
2018-04-29T03:11:52.440Z,18
2018-04-29T03:12:54.767Z,18
2018-04-29T03:13:56.085Z,18
2018-04-29T03:14:57.426Z,18
2018-04-29T03:15:58.730Z,18
2018-04-29T03:17:00.092Z,17.9
2018-04-29T03:18:01.446Z,17.9
2018-04-29T03:19:02.785Z,17.9
2018-04-29T03:20:04.169Z,17.9
2018-04-29T03:21:05.502Z,17.9
2018-04-29T03:22:06.855Z,17.9
2018-04-29T03:23:08.234Z,17.9
2018-04-29T03:24:09.583Z,17.9
2018-04-29T03:25:11.050Z,17.9
2018-04-29T03:26:12.377Z,17.8
2018-04-29T03:27:13.681Z,17.8
2018-04-29T03:28:15.100Z,17.8
2018-04-29T03:29:16.414Z,17.8
2018-04-29T03:30:17.755Z,17.8
2018-04-29T03:31:19.053Z,17.8
2018-04-29T03:32:20.406Z,17.8
2018-04-29T03:33:21.718Z,17.8
2018-04-29T03:34:23.022Z,17.7
2018-04-29T03:35:24.362Z,17.8
2018-04-29T03:36:25.706Z,17.7
2018-04-29T03:37:27.030Z,17.7
2018-04-29T03:38:28.374Z,17.7
2018-04-29T03:39:30.135Z,17.7
2018-04-29T03:40:31.510Z,17.7
2018-04-29T03:41:32.856Z,17.7
2018-04-29T03:42:34.185Z,17.7
2018-04-29T03:43:35.499Z,17.7
2018-04-29T03:44:36.798Z,17.7
2018-04-29T03:45:38.359Z,17.7
2018-04-29T03:46:39.825Z,17.6
2018-04-29T03:47:41.121Z,17.6
2018-04-29T03:48:42.446Z,17.6
2018-04-29T03:49:43.784Z,17.6
2018-04-29T03:50:47.618Z,17.6
2018-04-29T03:51:51.199Z,17.5
2018-04-29T03:52:52.562Z,17.6
2018-04-29T03:53:53.879Z,17.5
2018-04-29T03:54:55.209Z,17.6
2018-04-29T03:55:56.628Z,17.6
2018-04-29T03:56:57.867Z,17.5
2018-04-29T03:57:59.181Z,17.5
2018-04-29T03:59:00.489Z,17.5
2018-04-29T04:00:01.843Z,17.5
2018-04-29T04:01:03.232Z,17.5
2018-04-29T04:02:04.565Z,17.5
2018-04-29T04:03:05.891Z,17.5
2018-04-29T04:04:07.219Z,17.5
2018-04-29T04:05:10.764Z,17.5
2018-04-29T04:06:12.131Z,17.5
2018-04-29T04:07:13.445Z,17.5
2018-04-29T04:08:14.780Z,17.4
2018-04-29T04:09:16.098Z,17.5
2018-04-29T04:10:17.394Z,17.4
2018-04-29T04:11:18.772Z,17.4
2018-04-29T04:12:20.108Z,17.4
2018-04-29T04:13:21.444Z,17.4
2018-04-29T04:14:22.749Z,17.3
2018-04-29T04:15:24.054Z,17.3
2018-04-29T04:16:25.446Z,17.3
2018-04-29T04:17:26.754Z,17.3
2018-04-29T04:18:28.098Z,17.3
2018-04-29T04:19:29.413Z,17.2
2018-04-29T04:20:30.719Z,17.3
2018-04-29T04:21:32.086Z,17.3
2018-04-29T04:22:33.390Z,17.3
2018-04-29T04:23:34.720Z,17.3
2018-04-29T04:24:36.064Z,17.3
2018-04-29T04:25:37.377Z,17.3
2018-04-29T04:26:38.947Z,17.3
2018-04-29T04:27:40.322Z,17.3
2018-04-29T04:28:41.632Z,17.3
2018-04-29T04:29:42.946Z,17.3
2018-04-29T04:30:44.251Z,17.3
2018-04-29T04:31:45.635Z,17.3
2018-04-29T04:32:46.966Z,17.3
2018-04-29T04:33:50.491Z,17.3
2018-04-29T04:34:54.571Z,17.3
2018-04-29T04:35:55.903Z,17.3
2018-04-29T04:36:57.256Z,17.3
2018-04-29T04:37:58.609Z,17.1
2018-04-29T04:38:59.926Z,17.2
2018-04-29T04:40:01.259Z,17.2
2018-04-29T04:41:02.606Z,17.2
2018-04-29T04:42:03.987Z,17.2
2018-04-29T04:43:05.369Z,17.2
2018-04-29T04:44:06.715Z,17.2
2018-04-29T04:45:08.024Z,17.2
2018-04-29T04:46:09.368Z,17.2
2018-04-29T04:47:10.773Z,17.3
2018-04-29T04:48:12.076Z,17.3
2018-04-29T04:49:13.419Z,17.3
2018-04-29T04:50:14.741Z,17.3
2018-04-29T04:51:16.049Z,17.3
2018-04-29T04:52:17.489Z,17.3
2018-04-29T04:53:18.725Z,17.4
2018-04-29T04:54:20.062Z,17.2
2018-04-29T04:55:21.399Z,17.5
2018-04-29T04:56:22.729Z,17.5
2018-04-29T04:57:24.754Z,17.6
2018-04-29T04:58:26.107Z,17.6
2018-04-29T04:59:27.427Z,17.6
2018-04-29T05:00:28.767Z,17.7
2018-04-29T05:01:30.045Z,17.7
2018-04-29T05:02:31.385Z,17.8
2018-04-29T05:03:32.718Z,17.9
2018-04-29T05:04:34.090Z,18
2018-04-29T05:05:35.422Z,18.1
2018-04-29T05:06:36.731Z,18.1
2018-04-29T05:07:38.087Z,18.2
2018-04-29T05:08:39.386Z,18.3
2018-04-29T05:09:40.745Z,18.3
2018-04-29T05:10:42.067Z,18.4
2018-04-29T05:11:43.390Z,18.5
2018-04-29T05:12:44.747Z,18.5
2018-04-29T05:13:46.178Z,18.6
2018-04-29T05:14:47.432Z,18.5
2018-04-29T05:15:50.957Z,18.7
2018-04-29T05:16:52.353Z,18.7
2018-04-29T05:17:53.714Z,18.7
2018-04-29T05:18:55.068Z,18.7
2018-04-29T05:19:56.405Z,18.8
2018-04-29T05:20:57.717Z,18.9
2018-04-29T05:21:59.031Z,18.8
2018-04-29T05:23:00.393Z,19
2018-04-29T05:24:01.764Z,19.1
2018-04-29T05:25:03.088Z,19.1
2018-04-29T05:26:04.443Z,19.2
2018-04-29T05:27:05.797Z,19.3
2018-04-29T05:28:08.841Z,19.4
2018-04-29T05:29:10.461Z,19.5
2018-04-29T05:30:11.810Z,19.5
2018-04-29T05:31:13.152Z,19.6
2018-04-29T05:32:14.452Z,19.7
2018-04-29T05:33:15.850Z,19.8
2018-04-29T05:34:17.168Z,19.9
2018-04-29T05:35:18.580Z,20
2018-04-29T05:36:19.811Z,20.1
2018-04-29T05:37:21.126Z,20.1
2018-04-29T05:38:22.520Z,20.2
2018-04-29T05:39:23.874Z,20.3
2018-04-29T05:40:25.199Z,20.4
2018-04-29T05:41:26.521Z,20.4
2018-04-29T05:42:27.861Z,20.5
2018-04-29T05:43:29.286Z,20.5
2018-04-29T05:44:30.641Z,20.6
2018-04-29T05:45:31.982Z,20.6
2018-04-29T05:46:33.302Z,20.7
2018-04-29T05:47:34.625Z,20.7
2018-04-29T05:48:36.001Z,20.8
2018-04-29T05:49:37.307Z,20.9
2018-04-29T05:50:38.634Z,21
2018-04-29T05:51:39.950Z,21
2018-04-29T05:52:41.253Z,21.1
2018-04-29T05:53:42.629Z,21.2
2018-04-29T05:54:43.954Z,21.2
2018-04-29T05:55:45.286Z,21.3
2018-04-29T05:56:46.807Z,21.4
2018-04-29T05:57:48.252Z,21.5
2018-04-29T05:58:51.888Z,21.4
2018-04-29T05:59:53.201Z,21.6
2018-04-29T06:00:54.550Z,21.7
2018-04-29T06:01:56.026Z,21.8
2018-04-29T06:02:57.338Z,21.9
2018-04-29T06:03:59.946Z,22
2018-04-29T06:05:01.276Z,21.9
2018-04-29T06:06:02.590Z,22.1
2018-04-29T06:07:03.914Z,22.2
2018-04-29T06:08:05.243Z,22.3
2018-04-29T06:09:06.675Z,22.3
2018-04-29T06:10:07.991Z,22.3
2018-04-29T06:11:09.380Z,22.3
2018-04-29T06:12:10.718Z,22.4
2018-04-29T06:13:12.028Z,22.5
2018-04-29T06:14:13.702Z,22.6
2018-04-29T06:15:15.415Z,22.7
2018-04-29T06:16:16.759Z,22.8
2018-04-29T06:17:18.167Z,22.9
2018-04-29T06:18:19.431Z,23
2018-04-29T06:19:20.782Z,23.1
2018-04-29T06:20:22.141Z,23.1
2018-04-29T06:21:23.435Z,23.2
2018-04-29T06:22:24.811Z,23.3
2018-04-29T06:23:26.123Z,23.4
2018-04-29T06:24:27.529Z,23.4
2018-04-29T06:25:28.900Z,23.5
2018-04-29T06:26:30.234Z,23.6
2018-04-29T06:27:31.562Z,23.7
2018-04-29T06:28:32.865Z,23.7
2018-04-29T06:29:34.582Z,23.8
2018-04-29T06:30:35.953Z,23.9
2018-04-29T06:31:37.287Z,24
2018-04-29T06:32:38.598Z,24.1
2018-04-29T06:33:39.922Z,24.2
2018-04-29T06:34:41.352Z,24.3
2018-04-29T06:35:42.661Z,24.4
2018-04-29T06:36:43.958Z,24.5
2018-04-29T06:37:45.352Z,24.5
2018-04-29T06:38:46.720Z,24.6
2018-04-29T06:39:48.153Z,24.7
2018-04-29T06:40:52.044Z,24.9
2018-04-29T06:41:53.438Z,24.9
2018-04-29T06:42:54.777Z,25
2018-04-29T06:43:56.205Z,25.1
2018-04-29T06:44:58.672Z,25.2
2018-04-29T06:46:00.755Z,25.3
2018-04-29T06:47:02.226Z,25.2
2018-04-29T06:48:03.606Z,25.4
2018-04-29T06:49:04.998Z,25.5
2018-04-29T06:50:06.441Z,25.5
2018-04-29T06:51:07.800Z,25.5
2018-04-29T06:52:09.177Z,25.6
2018-04-29T06:53:10.594Z,25.7
2018-04-29T06:54:12.015Z,25.8
2018-04-29T06:55:13.419Z,25.8
2018-04-29T06:56:14.935Z,26
2018-04-29T06:57:16.383Z,26.1
2018-04-29T06:58:17.755Z,26.1
2018-04-29T06:59:19.149Z,26.2
2018-04-29T07:00:20.733Z,26.2
2018-04-29T07:01:22.038Z,26.4
2018-04-29T07:02:23.370Z,26.5
2018-04-29T07:03:24.700Z,26.5
2018-04-29T07:04:26.104Z,26.6
2018-04-29T07:05:27.505Z,26.7
2018-04-29T07:06:28.874Z,26.7
2018-04-29T07:07:30.228Z,26.8
2018-04-29T07:08:31.567Z,26.8
2018-04-29T07:09:32.878Z,26.9
2018-04-29T07:10:34.252Z,26.9
2018-04-29T07:11:35.642Z,27
2018-04-29T07:12:37.089Z,27
2018-04-29T07:13:38.469Z,27.1
2018-04-29T07:14:41.066Z,27.1
2018-04-29T07:15:43.010Z,27.2
2018-04-29T07:16:44.527Z,27.1
2018-04-29T07:17:45.818Z,27.3
2018-04-29T07:18:47.223Z,27.2
2018-04-29T07:19:50.560Z,27.2
2018-04-29T07:20:54.182Z,27.3
2018-04-29T07:21:55.804Z,27.4
2018-04-29T07:22:57.175Z,27.4
2018-04-29T07:23:58.509Z,27.4
2018-04-29T07:24:59.848Z,27.5
2018-04-29T07:26:01.326Z,27.5
2018-04-29T07:27:02.617Z,27.5
2018-04-29T07:28:04.018Z,27.4
2018-04-29T07:29:06.169Z,27.4
2018-04-29T07:30:07.546Z,27.3
2018-04-29T07:31:09.036Z,27.3
2018-04-29T07:32:10.484Z,27.3
2018-04-29T07:33:11.915Z,27.2
2018-04-29T07:34:13.264Z,27.2
2018-04-29T07:35:14.636Z,27.1
2018-04-29T07:36:16.070Z,27.3
2018-04-29T07:37:17.627Z,27.5
2018-04-29T07:38:19.109Z,27.7
2018-04-29T07:39:20.551Z,27.7
2018-04-29T07:40:22.010Z,27.8
2018-04-29T07:41:23.548Z,27.8
2018-04-29T07:42:25.341Z,27.9
2018-04-29T07:43:26.665Z,28
2018-04-29T07:44:28.027Z,27.8
2018-04-29T07:45:29.376Z,27.7
2018-04-29T07:46:30.772Z,27.7
2018-04-29T07:47:32.061Z,27.7
2018-04-29T07:48:33.409Z,27.8
2018-04-29T07:49:34.788Z,27.8
2018-04-29T07:50:36.165Z,27.7
2018-04-29T07:51:38.434Z,27.8
2018-04-29T07:52:39.887Z,28
2018-04-29T07:53:44.576Z,28
2018-04-29T07:54:46.006Z,28.1
2018-04-29T07:55:47.341Z,28.2
2018-04-29T07:56:52.276Z,28.3
2018-04-29T07:57:53.645Z,28.3
2018-04-29T07:58:55.760Z,28.3
2018-04-29T08:00:01.140Z,28.3
2018-04-29T08:01:07.174Z,28.4
2018-04-29T08:02:08.900Z,28.4
2018-04-29T08:03:10.247Z,28.5
2018-04-29T08:04:11.599Z,28.4
2018-04-29T08:05:12.965Z,28.3
2018-04-29T08:06:14.388Z,28.3
2018-04-29T08:07:22.308Z,28.4
2018-04-29T08:08:24.938Z,28.5
2018-04-29T08:09:26.279Z,28.5
2018-04-29T08:10:27.606Z,28.5
2018-04-29T08:11:28.973Z,28.5
2018-04-29T08:12:30.355Z,28.6
2018-04-29T08:13:31.714Z,28.6
2018-04-29T08:14:33.050Z,28.5
2018-04-29T08:15:34.422Z,28.5
2018-04-29T08:16:35.732Z,28.5
2018-04-29T08:17:37.166Z,28.5
2018-04-29T08:18:38.482Z,28.5
2018-04-29T08:19:39.835Z,28.5
2018-04-29T08:20:41.178Z,28.6
2018-04-29T08:21:44.218Z,28.7
2018-04-29T08:22:45.999Z,28.7
2018-04-29T08:23:47.218Z,28.7
2018-04-29T08:24:50.508Z,28.7
2018-04-29T08:25:52.399Z,28.6
2018-04-29T08:26:53.724Z,28.7
2018-04-29T08:27:56.421Z,28.8
2018-04-29T08:28:57.794Z,28.8
2018-04-29T08:29:59.221Z,28.7
2018-04-29T08:31:00.474Z,28.8
2018-04-29T08:32:01.871Z,28.9
2018-04-29T08:33:03.321Z,28.8
2018-04-29T08:34:07.491Z,28.8
2018-04-29T08:35:08.831Z,28.9
2018-04-29T08:37:13.977Z,29
2018-04-29T08:38:15.334Z,29
2018-04-29T08:39:16.707Z,29
2018-04-29T08:40:17.983Z,29.1
2018-04-29T08:41:19.307Z,29.1
2018-04-29T08:42:20.632Z,29
2018-04-29T08:43:22.032Z,29
2018-04-29T08:44:23.609Z,29
2018-04-29T08:45:24.973Z,29
2018-04-29T08:46:26.310Z,29
2018-04-29T08:47:27.609Z,29
2018-04-29T08:48:29.042Z,29
2018-04-29T08:49:30.394Z,29
2018-04-29T08:50:31.759Z,29
2018-04-29T08:51:33.109Z,29
2018-04-29T08:52:34.462Z,29
2018-04-29T08:53:35.862Z,29
2018-04-29T08:54:37.256Z,28.9
2018-04-29T08:55:38.589Z,28.9
2018-04-29T08:56:39.938Z,28.9
2018-04-29T08:57:41.272Z,28.9
2018-04-29T08:58:42.632Z,29
2018-04-29T08:59:43.968Z,29
2018-04-29T09:00:45.322Z,28.9
2018-04-29T09:01:46.732Z,28.9
2018-04-29T09:02:48.041Z,28.9
2018-04-29T09:03:51.899Z,28.8
2018-04-29T09:04:53.193Z,28.9
2018-04-29T09:05:54.489Z,28.8
2018-04-29T09:06:55.827Z,28.8
2018-04-29T09:07:57.209Z,28.8
2018-04-29T09:08:58.614Z,28.8
2018-04-29T09:09:59.980Z,28.8
2018-04-29T09:11:01.366Z,28.8
2018-04-29T09:12:02.709Z,28.8
2018-04-29T09:13:04.014Z,28.8
2018-04-29T09:14:05.386Z,28.8
2018-04-29T09:15:06.810Z,28.8
2018-04-29T09:16:08.158Z,28.7
2018-04-29T09:17:09.573Z,28.7
2018-04-29T09:18:11.042Z,28.7
2018-04-29T09:19:12.446Z,28.7
2018-04-29T09:20:13.783Z,28.6
2018-04-29T09:21:15.157Z,28.6
2018-04-29T09:22:16.496Z,28.6
2018-04-29T09:23:17.870Z,28.6
2018-04-29T09:24:19.330Z,28.5
2018-04-29T09:25:20.699Z,28.5
2018-04-29T09:26:22.119Z,28.5
2018-04-29T09:27:23.462Z,28.6
2018-04-29T09:28:24.796Z,28.5
2018-04-29T09:29:26.193Z,28.5
2018-04-29T09:30:27.506Z,28.5
2018-04-29T09:31:28.891Z,28.5
2018-04-29T09:32:30.231Z,28.5
2018-04-29T09:33:31.587Z,28.6
2018-04-29T09:34:33.050Z,28.6
2018-04-29T09:35:34.404Z,28.6
2018-04-29T09:36:35.761Z,28.5
2018-04-29T09:37:37.151Z,28.6
2018-04-29T09:38:38.476Z,28.6
2018-04-29T09:39:39.844Z,28.6
2018-04-29T09:40:41.222Z,28.5
2018-04-29T09:41:43.630Z,28.5
2018-04-29T09:42:45.308Z,28.5
2018-04-29T09:43:46.705Z,28.5
2018-04-29T09:44:48.129Z,28.4
2018-04-29T09:45:51.839Z,28.4
2018-04-29T09:46:53.199Z,28.5
2018-04-29T09:47:54.571Z,28.5
2018-04-29T09:48:57.603Z,28.5
2018-04-29T09:49:58.966Z,28.5
2018-04-29T09:51:00.363Z,28.5
2018-04-29T09:52:01.757Z,28.5
2018-04-29T09:53:05.314Z,28.5
2018-04-29T09:54:06.742Z,28.5
2018-04-29T09:55:08.133Z,28.5
2018-04-29T09:56:09.530Z,28.5
2018-04-29T09:57:10.913Z,28.4
2018-04-29T09:58:12.282Z,28.4
2018-04-29T09:59:13.663Z,28.4
2018-04-29T10:00:15.011Z,28.4
2018-04-29T10:01:18.003Z,28.4
2018-04-29T10:02:19.381Z,28.4
2018-04-29T10:03:20.721Z,28.4
2018-04-29T10:04:22.033Z,28.4
2018-04-29T10:05:23.440Z,28.4
2018-04-29T10:06:24.808Z,28.4
2018-04-29T10:07:26.176Z,28.3
2018-04-29T10:08:27.510Z,28.4
2018-04-29T10:09:28.884Z,28.4
2018-04-29T10:10:30.246Z,28.4
2018-04-29T10:11:31.632Z,28.4
2018-04-29T10:12:33.084Z,28.4
2018-04-29T10:13:34.416Z,28.4
2018-04-29T10:14:35.753Z,28.4
2018-04-29T10:15:37.151Z,28.3
2018-04-29T10:16:38.497Z,28.3
2018-04-29T10:17:39.921Z,28.3
2018-04-29T10:18:41.295Z,28.3
2018-04-29T10:19:42.649Z,28.3
2018-04-29T10:20:44.018Z,28.4
2018-04-29T10:21:45.354Z,28.3
2018-04-29T10:22:46.728Z,28.2
2018-04-29T10:23:48.031Z,28.3
2018-04-29T10:24:51.610Z,28.3
2018-04-29T10:25:53.032Z,28.3
2018-04-29T10:26:54.389Z,28.3
2018-04-29T10:27:55.749Z,28.2
2018-04-29T10:28:57.102Z,28.2
2018-04-29T10:29:58.433Z,28.2
2018-04-29T10:30:59.789Z,28.2
2018-04-29T10:32:01.168Z,28.2
2018-04-29T10:33:02.568Z,28.2
2018-04-29T10:34:03.866Z,28.2
2018-04-29T10:35:05.216Z,28.2
2018-04-29T10:36:06.761Z,28.2
2018-04-29T10:37:08.095Z,28.2
2018-04-29T10:38:09.453Z,28.2
2018-04-29T10:39:10.781Z,28.1
2018-04-29T10:40:12.129Z,28.1
2018-04-29T10:41:13.779Z,28.1
2018-04-29T10:42:22.597Z,28.1
2018-04-29T10:43:23.944Z,28.1
2018-04-29T10:44:25.342Z,28
2018-04-29T10:45:26.817Z,28
2018-04-29T10:46:28.322Z,28.1
2018-04-29T10:47:31.971Z,28
2018-04-29T10:48:33.346Z,28
2018-04-29T10:49:34.697Z,28
2018-04-29T10:50:36.046Z,28
2018-04-29T10:51:37.516Z,27.9
2018-04-29T10:52:38.846Z,28
2018-04-29T10:53:40.204Z,28
2018-04-29T10:54:41.553Z,28
2018-04-29T10:55:42.943Z,27.9
2018-04-29T10:56:44.350Z,27.8
2018-04-29T10:57:45.661Z,27.8
2018-04-29T10:58:47.146Z,27.9
2018-04-29T10:59:51.638Z,27.9
2018-04-29T11:00:53.256Z,27.7
2018-04-29T11:01:54.734Z,27.8
2018-04-29T11:02:56.103Z,27.8
2018-04-29T11:03:57.563Z,27.7
2018-04-29T11:04:58.893Z,27.7
2018-04-29T11:06:00.250Z,27.7
2018-04-29T11:08:09.213Z,27.8
2018-04-29T11:09:10.591Z,27.8
2018-04-29T11:10:11.949Z,27.8
2018-04-29T11:12:14.703Z,27.6
2018-04-29T11:13:16.034Z,27.8
2018-04-29T11:14:18.694Z,27.7
2018-04-29T11:15:20.086Z,27.6
2018-04-29T11:16:21.495Z,27.7
2018-04-29T11:17:22.891Z,27.7
2018-04-29T11:18:24.283Z,27.7
2018-04-29T11:19:25.716Z,27.6
2018-04-29T11:20:27.191Z,27.6
2018-04-29T11:21:28.931Z,27.6
2018-04-29T11:22:30.459Z,27.6
2018-04-29T11:23:31.871Z,27.6
2018-04-29T11:24:33.324Z,27.6
2018-04-29T11:25:34.665Z,27.6
2018-04-29T11:26:36.151Z,27.6
2018-04-29T11:27:40.061Z,27.5
2018-04-29T11:28:41.479Z,27.6
2018-04-29T11:29:42.767Z,27.6
2018-04-29T11:30:46.031Z,27.5
2018-04-29T11:31:47.534Z,27.5
2018-04-29T11:32:51.333Z,27.5
2018-04-29T11:33:53.157Z,27.5
2018-04-29T11:34:54.485Z,27.5
2018-04-29T11:35:56.096Z,27.5
2018-04-29T11:36:58.973Z,27.4
2018-04-29T11:38:05.185Z,27.4
2018-04-29T11:39:06.921Z,27.4
2018-04-29T11:40:08.401Z,27.4
2018-04-29T11:41:09.818Z,27.3
2018-04-29T11:42:11.189Z,27.3
2018-04-29T11:43:12.786Z,27.3
2018-04-29T11:44:14.188Z,27.3
2018-04-29T11:45:15.760Z,27.3
2018-04-29T11:46:17.107Z,27.3
2018-04-29T11:47:24.199Z,27.3
2018-04-29T11:48:27.345Z,27.3
2018-04-29T11:49:28.709Z,27.3
2018-04-29T11:50:33.748Z,27.3
2018-04-29T11:51:35.267Z,27.3
2018-04-29T11:52:36.727Z,27.3
2018-04-29T11:53:38.290Z,27.2
2018-04-29T11:54:39.649Z,27.2
2018-04-29T11:55:41.483Z,27.2
2018-04-29T11:56:42.887Z,27.2
2018-04-29T11:57:44.431Z,27.3
2018-04-29T11:58:48.964Z,27.3
2018-04-29T11:59:55.437Z,27.2
2018-04-29T12:00:56.906Z,27.3
2018-04-29T12:01:58.465Z,27.4
2018-04-29T12:02:59.735Z,27.2
2018-04-29T12:04:01.229Z,27.3
2018-04-29T12:05:02.689Z,27.4
2018-04-29T12:06:04.222Z,27.4
2018-04-29T12:07:07.338Z,27.3
2018-04-29T12:08:08.773Z,27.3
2018-04-29T12:09:10.391Z,27.3
2018-04-29T12:10:11.800Z,27.2
2018-04-29T12:11:13.235Z,27.2
2018-04-29T12:12:14.606Z,27.2
2018-04-29T12:13:17.196Z,27.2
2018-04-29T12:14:18.676Z,27.3
2018-04-29T12:15:24.202Z,27.3
2018-04-29T12:16:28.846Z,27.3
2018-04-29T12:17:30.190Z,27.4
2018-04-29T12:18:31.540Z,27.4
2018-04-29T12:19:32.923Z,27.4
2018-04-29T12:20:34.242Z,27.3
2018-04-29T12:21:35.573Z,27.3
2018-04-29T12:22:37.073Z,27.3
2018-04-29T12:23:38.534Z,27.3
2018-04-29T12:24:40.285Z,27.2
2018-04-29T12:25:43.682Z,27.1
2018-04-29T12:26:45.806Z,27.1
2018-04-29T12:27:47.561Z,27.1
2018-04-29T12:28:52.622Z,27.2
2018-04-29T12:29:54.538Z,27.1
2018-04-29T12:30:59.151Z,27.1
2018-04-29T12:32:00.711Z,27.1
2018-04-29T12:33:02.158Z,27.1
2018-04-29T12:34:03.486Z,27.1
2018-04-29T12:35:05.013Z,27.2
2018-04-29T12:36:07.536Z,27.2
2018-04-29T12:37:09.069Z,27.1
2018-04-29T12:38:10.422Z,26.9
2018-04-29T12:39:11.853Z,27.1
2018-04-29T12:40:13.425Z,27.1
2018-04-29T12:41:14.985Z,27.1
2018-04-29T12:42:16.333Z,27.1
2018-04-29T12:43:17.890Z,27.1
2018-04-29T12:44:19.252Z,27.1
2018-04-29T12:45:20.794Z,26.9
2018-04-29T12:46:22.230Z,27.1
2018-04-29T12:47:26.367Z,27.1
2018-04-29T12:48:27.992Z,27
2018-04-29T12:49:29.528Z,27
2018-04-29T12:50:30.986Z,27.1
2018-04-29T12:51:32.352Z,27.1
2018-04-29T12:52:36.010Z,27
2018-04-29T12:53:37.360Z,27
2018-04-29T12:54:38.743Z,27
2018-04-29T12:55:40.228Z,27
2018-04-29T12:56:41.607Z,27
2018-04-29T12:57:42.956Z,27
2018-04-29T12:58:44.361Z,27
2018-04-29T12:59:45.722Z,27
2018-04-29T13:00:47.086Z,26.9
2018-04-29T13:01:48.456Z,26.9
2018-04-29T13:02:52.974Z,26.9
2018-04-29T13:03:54.600Z,26.9
2018-04-29T13:04:56.125Z,26.9
2018-04-29T13:05:57.524Z,26.9
2018-04-29T13:06:59.013Z,26.9
2018-04-29T13:08:00.419Z,26.9
2018-04-29T13:09:01.911Z,26.9
2018-04-29T13:10:03.282Z,26.9
2018-04-29T13:11:05.097Z,26.8
2018-04-29T13:12:12.270Z,26.8
2018-04-29T13:13:13.597Z,26.7
2018-04-29T13:14:15.037Z,26.8
2018-04-29T13:15:17.590Z,26.7
2018-04-29T13:16:19.143Z,26.8
2018-04-29T13:17:20.503Z,26.7
2018-04-29T13:18:22.097Z,26.6
2018-04-29T13:19:23.636Z,26.7
2018-04-29T13:20:25.105Z,26.7
2018-04-29T13:21:26.685Z,26.7
2018-04-29T13:22:28.159Z,26.7
2018-04-29T13:23:29.620Z,26.7
2018-04-29T13:24:31.166Z,26.7
2018-04-29T13:25:32.639Z,26.6
2018-04-29T13:26:34.140Z,26.5
2018-04-29T13:27:35.651Z,26.6
2018-04-29T13:28:37.153Z,26.5
2018-04-29T13:29:38.814Z,26.6
2018-04-29T13:30:40.112Z,26.6
2018-04-29T13:31:41.747Z,26.6
2018-04-29T13:32:48.257Z,26.6
2018-04-29T13:33:53.214Z,26.6
2018-04-29T13:34:54.786Z,26.5
2018-04-29T13:35:56.237Z,26.5
2018-04-29T13:36:57.709Z,26.5
2018-04-29T13:37:59.165Z,26.5
2018-04-29T13:39:00.570Z,26.5
2018-04-29T13:40:03.837Z,26.5
2018-04-29T13:41:08.518Z,26.4
2018-04-29T13:42:10.059Z,26.5
2018-04-29T13:43:11.548Z,26.4
2018-04-29T13:44:13.108Z,26.2
2018-04-29T13:45:14.650Z,26.4
2018-04-29T13:46:16.360Z,26.4
2018-04-29T13:47:17.890Z,26.3
2018-04-29T13:48:19.325Z,26.3